• Join FlightAware (Why Join?)
  • Login
  • US Flag 
12:02AM EDT


 

Airport Tracker/Info


-or-


 

Live Flight TrackerFlight Track Log ✈ JBU56 ✈ 16-Apr-2014 ✈ KIAD - KBOS

Flight Track Log - Related Links

Times and Time Zones

All times are in EDT time to prevent confusion due to time zone crossing. See the JBU56 flight status page for this flight to view local times or setup timezone preferences in your user account.

Time Position Orientation Groundspeed Altitude Reporting Facility
EDT Latitude Longitude Course Direction KTS MPH feet Rate Location/Type
09:06AM 38.9667 -77.5000 360° North 164 189 2,000  Level Potomac TRACON
09:07AM 39.0167 -77.5000 360° North 206 237 4,700 2,700 Climbing Potomac TRACON
09:08AM 39.0667 -77.4667 27° Northeast 257 296 7,500 2,700 Climbing Potomac TRACON
09:09AM 39.1167 -77.4000 46° Northeast 291 335 9,900 1,680 Climbing Potomac TRACON
09:10AM 39.1167 -77.2833 90° East 366 421 10,700 1,260 Climbing Potomac TRACON
09:11AM 39.0878 -77.2361 128° Southeast 374 430 11,900 2,400 Climbing Washington Center
09:12AM 39.0894 -77.1000 89° East 392 451 14,600 2,460 Climbing Washington Center
09:13AM 39.0994 -76.9583 85° East 398 458 16,800 1,980 Climbing Washington Center
09:14AM 39.1117 -76.7953 84° East 403 464 18,600 1,860 Climbing Washington Center
09:15AM 39.1236 -76.6403 84° East 419 482 20,600 1,860 Climbing Washington Center
09:16AM 39.1331 -76.4800 86° East 431 496 22,400 1,140 Climbing Washington Center
09:17AM 39.1447 -76.3142 85° East 452 520 23,000 1,140 Climbing Washington Center
09:18AM 39.1642 -76.1431 82° East 465 535 24,700 1,620 Climbing Washington Center
09:19AM 39.1836 -75.9639 82° East 486 559 26,300 1,380 Climbing Washington Center
09:20AM 39.2467 -75.8114 62° Northeast 477 549 27,600 1,140 Climbing Washington Center
09:21AM 39.3467 -75.6856 44° Northeast 482 555 28,700 1,260 Climbing Washington Center
09:22AM 39.4469 -75.5567 45° Northeast 489 563 30,200 840 Climbing Washington Center
09:23AM 39.6100 -75.3439 45° Northeast 511 588 31,000 300 Climbing New York Center
09:24AM 39.7114 -75.2019 47° Northeast 516 594 31,000  Level New York Center
09:25AM 39.8106 -75.0542 49° Northeast 532 612 31,000  Level New York Center
09:26AM 39.9117 -74.9142 47° Northeast 532 612 31,000  Level New York Center
09:27AM 39.9975 -74.7811 50° Northeast 532 612 31,000  Level New York Center
09:28AM 40.0939 -74.6375 49° Northeast 532 612 31,000  Level New York Center
09:29AM 40.1906 -74.4853 50° Northeast 532 612 31,000  Level New York Center
09:30AM 40.2892 -74.3328 50° Northeast 537 618 31,000  Level New York Center
09:31AM 40.3872 -74.1825 49° Northeast 537 618 31,000  Level New York Center
09:32AM 40.4833 -74.0317 50° Northeast 537 618 31,000 -480 Level New York Center
09:34AM 40.6628 -73.7567 49° Northeast 548 631 29,700 -1,380 Descending Boston Center
09:35AM 40.7586 -73.6033 50° Northeast 546 628 27,200 -2,340 Descending Boston Center
09:36AM 40.8508 -73.4572 50° Northeast 521 600 25,000 -1,140 Descending Boston Center
09:37AM 40.9361 -73.3278 49° Northeast 508 585 25,000 -300 Level Boston Center
09:38AM 41.0481 -73.1625 48° Northeast 505 581 24,400 -840 Descending Boston Center
09:39AM 41.1394 -73.0267 48° Northeast 504 580 23,400 -720 Descending Boston Center
09:40AM 41.2247 -72.8894 50° Northeast 489 563 23,000 -240 Descending Boston Center
09:41AM 41.2831 -72.7431 62° Northeast 484 557 23,000  Level Boston Center
09:42AM 41.3436 -72.5803 64° Northeast 486 559 23,000  Level Boston Center
09:43AM 41.4036 -72.4150 64° Northeast 489 563 23,000  Level Boston Center
09:44AM 41.4653 -72.2494 64° Northeast 494 568 23,000  Level Boston Center
09:45AM 41.5386 -72.0492 64° Northeast 498 573 23,000 -780 Level Boston Center
09:46AM 41.5828 -71.9089 67° East 498 573 21,500 -2,040 Descending Boston Center
09:47AM 41.6428 -71.7078 68° East 480 552 18,900 -2,400 Descending Boston Center
09:48AM 41.6897 -71.5544 68° East 454 522 16,700 -2,280 Descending Boston Center
09:49AM 41.7350 -71.4072 68° East 434 499 14,300 -2,400 Descending Boston Center
09:50AM 41.7958 -71.2647 60° Northeast 409 471 11,900 -1,680 Descending Boston Center
09:51AM 41.8239 -71.1350 74° East 363 418 11,000 -480 Descending Boston Center
09:52AM 41.8303 -71.0156 86° East 315 362 11,000 -120 Level Boston Center
09:53AM 41.8364 -70.9089 86° East 288 331 10,800 -720 Descending Boston Center
09:54AM 41.8669 -70.8208 65° Northeast 284 327 9,600 -1,200 Descending Boston Center
09:55AM 41.9292 -70.7681 32° Northeast 267 307 8,400 -1,200 Descending Boston Center
09:56AM 41.9925 -70.7203 29° Northeast 262 302 7,200 -1,140 Descending Boston Center
09:57AM 42.0528 -70.6767 28° Northeast 247 284 6,200 -900 Descending Boston Center
09:58AM 42.1053 -70.6494 21° North 215 247 5,400 -840 Descending Boston Center
09:59AM 42.1461 -70.6622 347° North 159 183 4,500 -780 Descending Boston Center
10:00AM 42.1553 -70.7142 283° West 158 182 3,900 -300 Descending Boston Center
10:01AM 42.1828 -70.7625 308° West 138 159 3,900  Level Boston Center
10:02AM 42.2106 -70.7986 316° Northwest 138 159 4,000 -180 Climbing Boston Center
10:03AM 42.2364 -70.8331 315° West 135 155 3,600 -660 Descending Boston Center
10:04AM 42.2664 -70.8744 314° West 142 163 2,700 -900 Descending Boston Center
10:05AM 42.2958 -70.9125 316° Northwest 145 167 1,800 -840 Descending Boston Center
10:06AM 42.3217 -70.9469 315° West 145 167 1,100 -720 Descending Boston Center
10:08AM 42.3456 -70.9758 318° Northwest 126 145 400 -420 Descending Boston Center
10:09AM 42.3692 -71.0031 320° Northwest 124 143 300 -120 Descending Boston Center